Sopchoppy, Florida
Current Conditions -  °F | °C
As of 1:53 AM on Wednesday 22 Oct 2014 (Local Time) from KTLH Reporting Station
NA  
Wind Chill: 56°   Ceiling: NA
Heat Index: 56°   Visibility: 10mi
Dew Point: 51°   Wind: 0mph
Humidity: 84%   Direction: NA
Pressure: 29.98"   Gusts: NA
Location:  30.06°N, 84.49°W
Report Text: KTLH 220553Z AUTO 00000KT 10SM 13/11 A2998 RMK AO2 SLP150 6//// T01330106 10278 20133 $
Loading
Personal Weather Stations






























Interactive Weather Map
Tropical Storm Tracking
New forecast layout! Learn more

10-Day Weather Forecast

Advertisements
Track Severe Weather on mobile